CGB4 weather

Nanaimo/Gabriola Island (Health Clinic) Heliport
British Columbia, Canada

Public forecast

Using degrees Celsius for public forecast. Weather courtesy of forecast.io.

METAR (pilot weather report)

Closest report is Nanaimo Airport, 7.5 nm (13.9 km) S. Retrieved 2019/09/16 03:00 UTC (41 minutes ago):

CYCD 160300Z VRB02KT 25SM SCT060 SCT100 BKN250 14/13 A2973 RMK SC3AC1CI1 SLP068 DENSITY ALT 300FT

TAF (pilot weather forecast)

Forecast is more than 12 hours old.

Closest forecast is Nanaimo Airport, 7.5 nm (13.9 km) S. Retrieved 2019/09/15 00:00 UTC (1 day ago):

TAF CYCD 152338Z 1600/1604 VRB03KT P6SM SCT020 BKN080 TEMPO 1600/1604 P6SM -SHRA BKN020 PROB30 1600/1604 5SM TSRA BR BKN020CB RMK NXT FCST WILL BE ISSUED AT 161445Z